Terminal Aerodrome Forecast
Issued by NWS Tulsa, OK

Home | Current Version | Previous Version | Text Only | Print | Product List | Glossary On
Versions: 1 2 3 4 5 6 7 8 9 10 11 12 13 14
117
FTUS44 KTSA 301129
TAFTUL
TAF
KTUL 301129Z 3012/3112 00000KT P6SM BKN180 OVC250
     FM301300 16009KT P6SM VCTS SCT040CB BKN150
      TEMPO 3014/3018 4SM -TSRA OVC030CB
     FM310200 15007KT P6SM BKN250=

USA.gov is the U.S. government's official web portal to all federal, state and local government web resources and services.